createdAt,value
2019-05-19T00:01:34.046Z,77.48
2019-05-19T00:04:02.714Z,77.62
2019-05-19T00:06:31.440Z,79.08
2019-05-19T00:09:00.094Z,78.47
2019-05-19T00:11:30.179Z,77.60
2019-05-19T00:13:58.947Z,77.45
2019-05-19T00:16:27.650Z,77.48
2019-05-19T00:18:56.405Z,77.06
2019-05-19T00:21:25.204Z,78.16
2019-05-19T00:23:53.882Z,78.30
2019-05-19T00:26:22.595Z,78.04
2019-05-19T00:28:51.397Z,79.55
2019-05-19T00:31:20.096Z,79.79
2019-05-19T00:33:48.837Z,80.31
2019-05-19T00:36:19.594Z,80.54
2019-05-19T00:38:48.070Z,80.33
2019-05-19T00:41:16.777Z,79.97
2019-05-19T00:43:45.473Z,80.51
2019-05-19T00:46:14.190Z,80.30
2019-05-19T00:48:42.861Z,80.13
2019-05-19T00:51:11.927Z,80.15
2019-05-19T00:53:40.673Z,79.34
2019-05-19T00:56:09.491Z,79.27
2019-05-19T00:58:38.460Z,79.80
2019-05-19T01:01:07.202Z,80.30
2019-05-19T01:03:35.825Z,80.80
2019-05-19T01:06:06.173Z,79.57
2019-05-19T01:08:34.846Z,79.27
2019-05-19T01:11:03.637Z,80.87
2019-05-19T01:13:32.364Z,80.43
2019-05-19T01:16:01.060Z,80.76
2019-05-19T01:18:29.719Z,80.48
2019-05-19T01:20:58.490Z,80.70
2019-05-19T01:23:27.241Z,81.21
2019-05-19T01:25:55.940Z,81.17
2019-05-19T01:28:24.687Z,81.11
2019-05-19T01:30:53.395Z,81.29
2019-05-19T01:33:22.197Z,80.96
2019-05-19T01:35:50.937Z,81.31
2019-05-19T01:38:19.661Z,80.95
2019-05-19T01:40:48.378Z,80.95
2019-05-19T01:43:17.074Z,81.37
2019-05-19T01:45:45.839Z,81.35
2019-05-19T01:48:14.537Z,80.56
2019-05-19T01:50:43.241Z,80.75
2019-05-19T01:53:11.945Z,80.41
2019-05-19T01:55:40.755Z,80.40
2019-05-19T01:58:09.482Z,80.75
2019-05-19T02:00:38.144Z,80.50
2019-05-19T02:03:06.851Z,80.88
2019-05-19T02:05:35.537Z,80.58
2019-05-19T02:08:04.239Z,80.99
2019-05-19T02:10:32.984Z,81.28
2019-05-19T02:13:04.901Z,80.70
2019-05-19T02:15:32.197Z,81.18
2019-05-19T02:18:00.917Z,80.91
2019-05-19T02:20:33.034Z,80.71
2019-05-19T02:23:00.038Z,80.36
2019-05-19T02:25:28.775Z,79.97
2019-05-19T02:27:57.485Z,81.00
2019-05-19T02:30:26.150Z,81.93
2019-05-19T02:32:54.871Z,81.26
2019-05-19T02:35:23.780Z,82.49
2019-05-19T02:37:52.832Z,82.39
2019-05-19T02:40:21.979Z,82.27
2019-05-19T02:42:53.169Z,81.75
2019-05-19T02:45:23.328Z,81.75
2019-05-19T02:47:53.512Z,81.21
2019-05-19T02:50:23.012Z,81.54
2019-05-19T02:52:52.692Z,81.42
2019-05-19T02:55:21.765Z,81.25
2019-05-19T02:57:51.741Z,81.53
2019-05-19T03:00:23.579Z,81.69
2019-05-19T03:02:52.352Z,81.92
2019-05-19T03:05:21.123Z,81.77
2019-05-19T03:07:49.826Z,81.14
2019-05-19T03:10:18.610Z,81.46
2019-05-19T03:12:47.355Z,81.03
2019-05-19T03:15:16.122Z,80.79
2019-05-19T03:17:44.821Z,80.71
2019-05-19T03:20:13.598Z,80.66
2019-05-19T03:22:42.303Z,80.72
2019-05-19T03:25:11.121Z,81.01
2019-05-19T03:27:39.823Z,81.23
2019-05-19T03:30:26.882Z,80.83
2019-05-19T03:32:57.257Z,80.82
2019-05-19T03:35:26.071Z,80.46
2019-05-19T03:37:54.843Z,80.23
2019-05-19T03:40:23.638Z,80.55
2019-05-19T03:42:52.546Z,80.97
2019-05-19T03:45:21.413Z,80.99
2019-05-19T03:47:50.169Z,81.23
2019-05-19T03:50:18.992Z,81.00
2019-05-19T03:52:47.920Z,80.53
2019-05-19T03:55:16.918Z,80.93
2019-05-19T03:57:45.606Z,80.91
2019-05-19T04:00:14.582Z,80.64
2019-05-19T04:02:43.284Z,81.14
2019-05-19T04:05:12.131Z,81.57
2019-05-19T04:07:40.871Z,81.68
2019-05-19T04:10:10.051Z,81.72
2019-05-19T04:12:38.787Z,81.75
2019-05-19T04:15:07.912Z,81.85
2019-05-19T04:17:36.623Z,82.06
2019-05-19T04:20:06.863Z,82.07
2019-05-19T04:22:35.572Z,82.19
2019-05-19T04:25:04.442Z,82.24
2019-05-19T04:27:33.139Z,81.78
2019-05-19T04:30:01.899Z,82.11
2019-05-19T04:32:30.669Z,81.50
2019-05-19T04:34:59.415Z,81.31
2019-05-19T04:37:28.109Z,82.09
2019-05-19T04:39:56.853Z,81.24
2019-05-19T04:42:25.534Z,81.70
2019-05-19T04:44:54.244Z,81.98
2019-05-19T04:47:22.910Z,82.33
2019-05-19T04:49:51.698Z,81.88
2019-05-19T04:52:20.354Z,81.50
2019-05-19T04:54:49.088Z,81.13
2019-05-19T04:57:17.870Z,80.66
2019-05-19T04:59:46.589Z,80.59
2019-05-19T05:02:15.778Z,80.38
2019-05-19T05:04:44.589Z,81.27
2019-05-19T05:07:13.269Z,81.22
2019-05-19T05:09:41.990Z,81.14
2019-05-19T05:12:10.728Z,80.72
2019-05-19T05:14:39.464Z,80.96
2019-05-19T05:17:08.200Z,80.53
2019-05-19T05:19:36.902Z,81.17
2019-05-19T05:22:05.645Z,80.86
2019-05-19T05:24:34.423Z,81.03
2019-05-19T05:27:05.856Z,80.21
2019-05-19T05:29:34.637Z,80.73
2019-05-19T05:32:03.327Z,80.92
2019-05-19T05:34:32.224Z,80.59
2019-05-19T05:37:00.900Z,79.80
2019-05-19T05:39:29.654Z,79.96
2019-05-19T05:41:58.405Z,80.03
2019-05-19T05:44:27.125Z,80.35
2019-05-19T05:46:55.814Z,80.52
2019-05-19T05:49:24.518Z,80.75
2019-05-19T05:51:53.192Z,80.63
2019-05-19T05:54:22.313Z,80.40
2019-05-19T05:56:51.049Z,80.43
2019-05-19T05:59:19.838Z,80.85
2019-05-19T06:01:48.606Z,80.18
2019-05-19T06:04:17.386Z,79.65
2019-05-19T06:06:46.059Z,79.17
2019-05-19T06:09:14.829Z,79.30
2019-05-19T06:11:43.503Z,80.01
2019-05-19T06:14:12.211Z,79.60
2019-05-19T06:16:40.952Z,79.30
2019-05-19T06:19:09.679Z,79.46
2019-05-19T06:21:38.343Z,79.58
2019-05-19T06:24:07.059Z,78.99
2019-05-19T06:26:35.795Z,78.47
2019-05-19T06:29:04.558Z,79.13
2019-05-19T06:31:33.334Z,78.77
2019-05-19T06:34:02.075Z,78.53
2019-05-19T06:36:30.936Z,78.24
2019-05-19T06:38:59.665Z,78.11
2019-05-19T06:41:28.338Z,78.30
2019-05-19T06:43:57.022Z,78.63
2019-05-19T06:46:25.711Z,78.44
2019-05-19T06:48:54.493Z,78.41
2019-05-19T06:51:23.162Z,78.16
2019-05-19T06:53:51.928Z,78.21
2019-05-19T06:56:20.690Z,77.83
2019-05-19T06:58:49.453Z,77.89
2019-05-19T07:01:18.199Z,77.72
2019-05-19T07:03:49.219Z,77.85
2019-05-19T07:06:18.019Z,77.61
2019-05-19T07:08:46.810Z,77.67
2019-05-19T07:11:15.507Z,76.29
2019-05-19T07:13:44.179Z,76.40
2019-05-19T07:16:12.885Z,75.48
2019-05-19T07:18:41.560Z,75.28
2019-05-19T07:21:10.405Z,75.06
2019-05-19T07:23:39.146Z,73.96
2019-05-19T07:26:07.936Z,74.69
2019-05-19T07:28:36.612Z,74.53
2019-05-19T07:31:06.372Z,73.47
2019-05-19T07:33:35.008Z,73.22
2019-05-19T07:36:03.807Z,74.10
2019-05-19T07:38:32.504Z,74.47
2019-05-19T07:41:01.353Z,74.44
2019-05-19T07:43:30.033Z,74.20
2019-05-19T07:45:58.814Z,74.37
2019-05-19T07:48:27.607Z,75.01
2019-05-19T07:50:56.348Z,75.02
2019-05-19T07:53:25.071Z,74.11
2019-05-19T07:55:53.783Z,74.53
2019-05-19T07:58:22.463Z,74.75
2019-05-19T08:00:51.346Z,73.67
2019-05-19T08:03:20.324Z,73.18
2019-05-19T08:05:49.284Z,71.60
2019-05-19T08:08:18.030Z,71.95
2019-05-19T08:10:46.720Z,71.77
2019-05-19T08:13:15.467Z,70.83
2019-05-19T08:15:44.090Z,69.88
2019-05-19T08:18:15.696Z,68.47
2019-05-19T08:20:44.433Z,68.59
2019-05-19T08:23:13.106Z,68.52
2019-05-19T08:25:41.901Z,66.60
2019-05-19T08:28:10.843Z,66.64
2019-05-19T08:30:39.674Z,64.88
2019-05-19T08:33:11.390Z,62.88
2019-05-19T08:35:40.230Z,60.81
2019-05-19T08:38:08.994Z,57.56
2019-05-19T08:40:37.740Z,57.03
2019-05-19T08:43:06.545Z,53.06
2019-05-19T08:45:35.232Z,53.44
2019-05-19T08:48:03.988Z,54.06
2019-05-19T08:50:32.735Z,53.00
2019-05-19T08:53:01.467Z,49.27
2019-05-19T08:55:30.219Z,51.99
2019-05-19T08:57:58.997Z,52.51
2019-05-19T09:00:27.883Z,52.80
2019-05-19T09:02:56.584Z,51.92
2019-05-19T09:05:25.284Z,53.19
2019-05-19T09:07:54.003Z,52.66
2019-05-19T09:10:22.815Z,52.63
2019-05-19T09:12:51.616Z,54.21
2019-05-19T09:15:20.445Z,55.47
2019-05-19T09:17:49.196Z,53.94
2019-05-19T09:20:18.128Z,50.04
2019-05-19T09:22:46.761Z,48.28
2019-05-19T09:25:15.970Z,47.94
2019-05-19T09:27:44.772Z,43.44
2019-05-19T09:30:14.048Z,43.10
2019-05-19T09:32:45.841Z,40.74
2019-05-19T09:35:16.239Z,38.61
2019-05-19T09:37:44.994Z,38.29
2019-05-19T09:40:14.571Z,36.36
2019-05-19T09:42:43.352Z,38.73
2019-05-19T09:45:12.491Z,37.01
2019-05-19T09:47:41.400Z,37.90
2019-05-19T09:50:10.500Z,38.43
2019-05-19T09:52:39.305Z,36.15
2019-05-19T09:55:09.293Z,37.15
2019-05-19T09:57:38.187Z,36.62
2019-05-19T10:00:09.111Z,33.80
2019-05-19T10:02:37.867Z,34.33
2019-05-19T10:05:07.052Z,31.92
2019-05-19T10:07:35.839Z,32.64
2019-05-19T10:10:13.782Z,33.76
2019-05-19T10:12:42.552Z,30.47
2019-05-19T10:15:11.733Z,31.40
2019-05-19T10:17:40.459Z,29.94
2019-05-19T10:20:11.034Z,30.29
2019-05-19T10:22:39.760Z,29.89
2019-05-19T10:25:21.581Z,28.23
2019-05-19T10:27:40.116Z,25.68
2019-05-19T10:30:09.792Z,26.89
2019-05-19T10:32:43.972Z,27.55
2019-05-19T10:35:13.141Z,28.95
2019-05-19T10:37:41.810Z,28.70
2019-05-19T10:40:10.847Z,27.88
2019-05-19T10:42:39.641Z,24.84
2019-05-19T10:45:09.942Z,26.08
2019-05-19T10:47:38.711Z,26.93
2019-05-19T10:50:07.802Z,26.01
2019-05-19T10:52:36.497Z,26.62
2019-05-19T10:55:06.118Z,27.56
2019-05-19T10:57:34.790Z,28.89
2019-05-19T11:00:04.159Z,25.88
2019-05-19T11:02:32.933Z,27.73
2019-05-19T11:05:01.752Z,27.26
2019-05-19T11:07:32.915Z,25.50
2019-05-19T11:10:01.810Z,27.12
2019-05-19T11:12:30.490Z,24.28
2019-05-19T11:14:59.185Z,23.88
2019-05-19T11:17:27.984Z,26.19
2019-05-19T11:19:56.646Z,28.07
2019-05-19T11:22:25.342Z,27.20
2019-05-19T11:24:54.076Z,28.35
2019-05-19T11:27:22.840Z,30.01
2019-05-19T11:29:51.545Z,30.01
2019-05-19T11:32:20.322Z,28.30
2019-05-19T11:34:49.029Z,31.17
2019-05-19T11:37:17.736Z,31.32
2019-05-19T11:39:46.466Z,31.32
2019-05-19T11:42:15.205Z,30.14
2019-05-19T11:44:43.891Z,29.13
2019-05-19T11:47:12.607Z,27.99
2019-05-19T11:49:41.340Z,30.21
2019-05-19T11:52:10.107Z,28.41
2019-05-19T11:54:38.912Z,29.33
2019-05-19T11:57:07.606Z,29.19
2019-05-19T11:59:36.332Z,27.93
2019-05-19T12:02:06.499Z,29.34
2019-05-19T12:04:35.252Z,29.76
2019-05-19T12:07:03.935Z,28.40
2019-05-19T12:09:33.289Z,29.13
2019-05-19T12:12:02.213Z,28.64
2019-05-19T12:14:30.978Z,31.67
2019-05-19T12:16:59.805Z,30.91
2019-05-19T12:19:28.552Z,30.47
2019-05-19T12:21:57.239Z,30.65
2019-05-19T12:24:25.948Z,31.32
2019-05-19T12:26:54.669Z,30.89
2019-05-19T12:29:23.467Z,30.98
2019-05-19T12:31:52.200Z,29.96
2019-05-19T12:34:21.039Z,30.09
2019-05-19T12:36:49.796Z,33.83
2019-05-19T12:39:18.539Z,33.71
2019-05-19T12:41:47.197Z,35.05
2019-05-19T12:44:15.943Z,33.96
2019-05-19T12:46:44.735Z,34.51
2019-05-19T12:49:16.422Z,36.34
2019-05-19T12:51:45.178Z,35.72
2019-05-19T12:54:14.450Z,38.09
2019-05-19T12:56:43.163Z,41.00
2019-05-19T12:59:11.932Z,40.61
2019-05-19T13:01:40.709Z,40.78
2019-05-19T13:04:09.382Z,43.27
2019-05-19T13:06:38.137Z,43.84
2019-05-19T13:09:07.652Z,43.90
2019-05-19T13:11:36.433Z,44.62
2019-05-19T13:14:06.812Z,44.47
2019-05-19T13:16:35.670Z,46.07
2019-05-19T13:19:05.996Z,45.86
2019-05-19T13:21:36.677Z,46.44
2019-05-19T13:24:05.095Z,46.03
2019-05-19T13:26:33.876Z,46.80
2019-05-19T13:29:02.627Z,47.62
2019-05-19T13:31:31.398Z,47.18
2019-05-19T13:34:00.338Z,47.75
2019-05-19T13:36:29.098Z,48.69
2019-05-19T13:38:57.875Z,47.85
2019-05-19T13:41:26.560Z,46.82
2019-05-19T13:43:55.371Z,46.41
2019-05-19T13:46:24.121Z,45.84
2019-05-19T13:48:52.878Z,44.79
2019-05-19T13:51:21.603Z,44.38
2019-05-19T13:53:50.270Z,44.58
2019-05-19T13:56:19.000Z,44.54
2019-05-19T13:58:47.793Z,44.56
2019-05-19T14:01:28.012Z,45.29
2019-05-19T14:03:46.975Z,45.74
2019-05-19T14:06:15.781Z,46.87
2019-05-19T14:08:44.544Z,46.51
2019-05-19T14:11:16.136Z,47.32
2019-05-19T14:13:44.937Z,46.67
2019-05-19T14:16:13.712Z,47.05
2019-05-19T14:18:42.384Z,46.48
2019-05-19T14:21:11.111Z,46.87
2019-05-19T14:23:39.793Z,46.66
2019-05-19T14:26:08.475Z,47.59
2019-05-19T14:28:37.228Z,48.06
2019-05-19T14:31:06.457Z,47.79
2019-05-19T14:33:35.196Z,49.11
2019-05-19T14:36:03.929Z,48.61
2019-05-19T14:38:32.612Z,48.39
2019-05-19T14:41:01.269Z,48.09
2019-05-19T14:43:31.450Z,48.54
2019-05-19T14:46:00.246Z,49.39
2019-05-19T14:48:28.982Z,49.30
2019-05-19T14:50:57.773Z,50.05
2019-05-19T14:53:26.531Z,48.39
2019-05-19T14:55:55.340Z,48.96
2019-05-19T14:58:24.089Z,49.29
2019-05-19T15:00:52.878Z,48.22
2019-05-19T15:03:21.648Z,48.10
2019-05-19T15:05:50.427Z,48.89
2019-05-19T15:08:19.230Z,48.99
2019-05-19T15:10:47.954Z,49.59
2019-05-19T15:13:16.708Z,50.14
2019-05-19T15:15:45.494Z,49.98
2019-05-19T15:18:15.208Z,50.09
2019-05-19T15:20:44.145Z,48.49
2019-05-19T15:23:12.872Z,48.74
2019-05-19T15:25:41.644Z,48.01
2019-05-19T15:28:10.469Z,48.13
2019-05-19T15:30:39.230Z,47.61
2019-05-19T15:33:07.982Z,47.88
2019-05-19T15:35:36.811Z,48.74
2019-05-19T15:38:05.574Z,48.90
2019-05-19T15:40:34.351Z,48.82
2019-05-19T15:43:03.065Z,48.98
2019-05-19T15:45:31.854Z,49.20
2019-05-19T15:48:00.659Z,49.04
2019-05-19T15:50:29.422Z,48.51
2019-05-19T15:52:58.102Z,48.34
2019-05-19T15:55:26.929Z,48.24
2019-05-19T15:57:55.728Z,49.25
2019-05-19T16:00:24.469Z,49.28
2019-05-19T16:02:53.150Z,48.13
2019-05-19T16:05:22.048Z,48.30
2019-05-19T16:07:50.800Z,48.10
2019-05-19T16:10:19.602Z,48.86
2019-05-19T16:12:49.848Z,48.61
2019-05-19T16:15:21.092Z,48.99
2019-05-19T16:17:50.504Z,49.03
2019-05-19T16:20:19.365Z,49.27
2019-05-19T16:22:48.096Z,49.37
2019-05-19T16:25:16.915Z,49.89
2019-05-19T16:27:45.742Z,49.45
2019-05-19T16:30:14.985Z,50.44
2019-05-19T16:32:43.663Z,50.33
2019-05-19T16:35:12.890Z,51.17
2019-05-19T16:37:41.589Z,51.78
2019-05-19T16:40:10.841Z,51.59
2019-05-19T16:42:39.566Z,52.19
2019-05-19T16:45:08.974Z,52.13
2019-05-19T16:47:37.723Z,52.84
2019-05-19T16:50:08.140Z,52.94
2019-05-19T16:52:36.893Z,53.41
2019-05-19T16:55:23.584Z,53.42
2019-05-19T16:57:52.364Z,53.80
2019-05-19T17:00:21.523Z,53.16
2019-05-19T17:02:50.280Z,54.17
2019-05-19T17:05:19.135Z,53.73
2019-05-19T17:07:47.816Z,54.34
2019-05-19T17:10:18.131Z,54.73
2019-05-19T17:12:46.794Z,55.13
2019-05-19T17:15:16.684Z,55.30
2019-05-19T17:17:45.474Z,56.16
2019-05-19T17:20:16.058Z,56.05
2019-05-19T17:22:44.712Z,56.42
2019-05-19T17:25:13.994Z,56.62
2019-05-19T17:27:42.804Z,56.34
2019-05-19T17:30:13.332Z,56.98
2019-05-19T17:32:42.551Z,57.58
2019-05-19T17:35:12.432Z,57.90
2019-05-19T17:37:41.958Z,58.35
2019-05-19T17:40:12.516Z,58.68
2019-05-19T17:42:41.907Z,59.77
2019-05-19T17:45:11.095Z,60.15
2019-05-19T17:47:39.828Z,60.39
2019-05-19T17:50:09.552Z,60.46
2019-05-19T17:52:38.310Z,60.47
2019-05-19T17:55:08.690Z,61.35
2019-05-19T17:57:38.499Z,61.37
2019-05-19T18:00:10.226Z,61.35
2019-05-19T18:02:39.166Z,61.65
2019-05-19T18:05:08.081Z,61.80
2019-05-19T18:07:36.835Z,61.98
2019-05-19T18:10:08.826Z,62.73
2019-05-19T18:12:37.538Z,62.87
2019-05-19T18:15:08.469Z,63.10
2019-05-19T18:17:37.200Z,63.61
2019-05-19T18:20:07.177Z,63.90
2019-05-19T18:22:35.894Z,63.19
2019-05-19T18:25:05.947Z,63.99
2019-05-19T18:27:36.008Z,63.62
2019-05-19T18:30:05.619Z,64.67
2019-05-19T18:32:34.350Z,63.87
2019-05-19T18:35:03.151Z,65.06
2019-05-19T18:37:31.999Z,65.06
2019-05-19T18:40:00.778Z,66.13
2019-05-19T18:42:29.544Z,66.13
2019-05-19T18:44:58.319Z,66.69
2019-05-19T18:47:28.689Z,67.13
2019-05-19T18:49:57.596Z,67.73
2019-05-19T18:52:26.354Z,66.89
2019-05-19T18:54:55.147Z,67.93
2019-05-19T18:57:23.912Z,68.60
2019-05-19T18:59:52.726Z,68.02
2019-05-19T19:02:21.654Z,68.45
2019-05-19T19:04:50.403Z,68.73
2019-05-19T19:07:19.164Z,68.16
2019-05-19T19:09:47.899Z,67.78
2019-05-19T19:12:16.639Z,69.12
2019-05-19T19:14:46.671Z,69.31
2019-05-19T19:17:15.415Z,69.23
2019-05-19T19:19:44.226Z,69.77
2019-05-19T19:22:12.981Z,70.36
2019-05-19T19:24:41.777Z,70.14
2019-05-19T19:27:10.510Z,70.12
2019-05-19T19:29:39.288Z,70.36
2019-05-19T19:32:08.085Z,70.64
2019-05-19T19:34:36.835Z,71.12
2019-05-19T19:37:05.504Z,71.35
2019-05-19T19:39:34.296Z,71.67
2019-05-19T19:42:02.992Z,71.06
2019-05-19T19:44:31.756Z,72.17
2019-05-19T19:47:00.552Z,72.88
2019-05-19T19:49:29.302Z,72.22
2019-05-19T19:51:58.080Z,72.11
2019-05-19T19:54:26.811Z,72.47
2019-05-19T19:56:55.561Z,71.77
2019-05-19T19:59:24.309Z,72.52
2019-05-19T20:01:53.039Z,72.55
2019-05-19T20:04:21.807Z,72.77
2019-05-19T20:06:50.576Z,72.45
2019-05-19T20:09:21.311Z,72.78
2019-05-19T20:11:54.832Z,72.97
2019-05-19T20:14:23.677Z,72.39
2019-05-19T20:16:52.458Z,73.07
2019-05-19T20:19:23.868Z,73.23
2019-05-19T20:21:52.583Z,73.72
2019-05-19T20:24:21.346Z,74.02
2019-05-19T20:26:50.079Z,73.56
2019-05-19T20:29:18.883Z,73.50
2019-05-19T20:31:50.391Z,73.54
2019-05-19T20:34:19.134Z,73.39
2019-05-19T20:36:49.090Z,74.21
2019-05-19T20:39:17.818Z,73.54
2019-05-19T20:41:46.574Z,73.37
2019-05-19T20:44:15.342Z,73.72
2019-05-19T20:46:44.115Z,73.94
2019-05-19T20:49:12.917Z,73.40
2019-05-19T20:51:41.651Z,73.26
2019-05-19T20:54:10.412Z,73.73
2019-05-19T20:56:39.180Z,74.04
2019-05-19T20:59:07.963Z,73.70
2019-05-19T21:01:36.850Z,73.94
2019-05-19T21:04:05.665Z,74.35
2019-05-19T21:06:34.377Z,73.92
2019-05-19T21:09:04.147Z,74.40
2019-05-19T21:11:32.876Z,73.99
2019-05-19T21:14:01.547Z,75.06
2019-05-19T21:16:30.318Z,74.67
2019-05-19T21:19:00.675Z,74.62
2019-05-19T21:21:29.396Z,75.27
2019-05-19T21:23:58.134Z,75.71
2019-05-19T21:26:26.944Z,75.61
2019-05-19T21:28:55.599Z,76.36
2019-05-19T21:31:24.341Z,76.28
2019-05-19T21:33:53.051Z,76.45
2019-05-19T21:36:21.828Z,77.05
2019-05-19T21:38:50.625Z,76.40
2019-05-19T21:41:19.383Z,76.20
2019-05-19T21:43:48.068Z,76.41
2019-05-19T21:46:16.805Z,76.52
2019-05-19T21:48:45.549Z,76.34
2019-05-19T21:51:14.297Z,77.73
2019-05-19T21:53:43.072Z,76.94
2019-05-19T21:56:11.814Z,76.43
2019-05-19T21:58:40.572Z,75.86
2019-05-19T22:01:22.153Z,76.40
2019-05-19T22:03:39.971Z,76.47
2019-05-19T22:06:08.708Z,77.33
2019-05-19T22:08:37.448Z,77.30
2019-05-19T22:11:06.216Z,77.74
2019-05-19T22:13:35.031Z,77.34
2019-05-19T22:16:12.445Z,77.19
2019-05-19T22:18:34.319Z,77.62
2019-05-19T22:21:03.187Z,77.70
2019-05-19T22:23:31.931Z,77.50
2019-05-19T22:26:00.612Z,77.12
2019-05-19T22:28:29.420Z,77.29
2019-05-19T22:30:58.145Z,77.38
2019-05-19T22:33:26.914Z,78.17
2019-05-19T22:35:56.109Z,78.18
2019-05-19T22:38:24.861Z,78.83
2019-05-19T22:40:53.576Z,78.24
2019-05-19T22:43:22.313Z,78.62
2019-05-19T22:45:51.097Z,78.34
2019-05-19T22:48:19.895Z,78.68
2019-05-19T22:50:48.648Z,79.62
2019-05-19T22:53:17.297Z,80.23
2019-05-19T22:55:46.114Z,80.46
2019-05-19T22:58:14.959Z,80.39
2019-05-19T23:00:43.717Z,80.33
2019-05-19T23:03:12.483Z,80.41
2019-05-19T23:05:41.212Z,79.38
2019-05-19T23:08:09.940Z,79.51
2019-05-19T23:10:38.640Z,79.85
2019-05-19T23:13:08.358Z,80.65
2019-05-19T23:15:37.209Z,79.85
2019-05-19T23:18:05.955Z,80.35
2019-05-19T23:20:34.679Z,80.57
2019-05-19T23:23:03.354Z,80.95
2019-05-19T23:25:32.102Z,81.86
2019-05-19T23:28:00.805Z,82.12
2019-05-19T23:30:29.563Z,81.61
2019-05-19T23:32:58.269Z,81.24
2019-05-19T23:35:27.113Z,80.62
2019-05-19T23:37:55.785Z,80.69
2019-05-19T23:40:24.574Z,80.84
2019-05-19T23:42:53.427Z,81.69
2019-05-19T23:45:22.210Z,81.15
2019-05-19T23:47:50.938Z,80.97
2019-05-19T23:50:20.288Z,80.77
2019-05-19T23:52:48.964Z,80.45
2019-05-19T23:55:17.774Z,79.84
2019-05-19T23:57:46.522Z,79.23
